sensor_id;sensor_type;location;lat;lon;timestamp;temperature;humidity
9157;DHT22;4613;48.392;9.998;2022-11-20T00:00:50;5.60;99.90
9157;DHT22;4613;48.392;9.998;2022-11-20T00:03:40;5.60;99.90
9157;DHT22;4613;48.392;9.998;2022-11-20T00:06:30;5.60;99.90
9157;DHT22;4613;48.392;9.998;2022-11-20T00:09:20;5.50;99.90
9157;DHT22;4613;48.392;9.998;2022-11-20T00:12:09;5.40;99.90
9157;DHT22;4613;48.392;9.998;2022-11-20T00:14:59;5.40;99.90
9157;DHT22;4613;48.392;9.998;2022-11-20T00:17:49;5.30;99.90
9157;DHT22;4613;48.392;9.998;2022-11-20T00:20:38;5.20;99.90
9157;DHT22;4613;48.392;9.998;2022-11-20T00:23:27;5.40;99.90
9157;DHT22;4613;48.392;9.998;2022-11-20T00:26:18;5.20;99.90
9157;DHT22;4613;48.392;9.998;2022-11-20T00:29:09;4.90;99.90
9157;DHT22;4613;48.392;9.998;2022-11-20T00:32:01;4.60;99.90
9157;DHT22;4613;48.392;9.998;2022-11-20T00:34:53;4.60;99.90
9157;DHT22;4613;48.392;9.998;2022-11-20T00:37:42;4.30;99.90
9157;DHT22;4613;48.392;9.998;2022-11-20T00:40:32;4.30;99.90
9157;DHT22;4613;48.392;9.998;2022-11-20T00:43:21;4.60;99.90
9157;DHT22;4613;48.392;9.998;2022-11-20T00:46:18;5.00;99.90
9157;DHT22;4613;48.392;9.998;2022-11-20T00:49:07;4.80;99.90
9157;DHT22;4613;48.392;9.998;2022-11-20T00:51:57;4.70;99.90
9157;DHT22;4613;48.392;9.998;2022-11-20T00:54:46;4.60;99.90
9157;DHT22;4613;48.392;9.998;2022-11-20T00:57:35;4.70;99.90
9157;DHT22;4613;48.392;9.998;2022-11-20T01:00:24;4.60;99.90
9157;DHT22;4613;48.392;9.998;2022-11-20T01:03:14;4.70;99.90
9157;DHT22;4613;48.392;9.998;2022-11-20T01:06:05;4.40;99.90
9157;DHT22;4613;48.392;9.998;2022-11-20T01:08:57;4.30;99.90
9157;DHT22;4613;48.392;9.998;2022-11-20T01:11:47;4.30;99.90
9157;DHT22;4613;48.392;9.998;2022-11-20T01:14:36;4.40;99.90
9157;DHT22;4613;48.392;9.998;2022-11-20T01:17:26;4.20;99.90
9157;DHT22;4613;48.392;9.998;2022-11-20T01:20:15;4.30;99.90
9157;DHT22;4613;48.392;9.998;2022-11-20T01:23:04;4.10;99.90
9157;DHT22;4613;48.392;9.998;2022-11-20T01:25:56;4.30;99.90
9157;DHT22;4613;48.392;9.998;2022-11-20T01:28:49;3.90;99.90
9157;DHT22;4613;48.392;9.998;2022-11-20T01:31:38;4.10;99.90
9157;DHT22;4613;48.392;9.998;2022-11-20T01:34:28;4.30;99.90
9157;DHT22;4613;48.392;9.998;2022-11-20T01:37:17;4.60;99.90
9157;DHT22;4613;48.392;9.998;2022-11-20T01:40:06;4.10;99.90
9157;DHT22;4613;48.392;9.998;2022-11-20T01:43:10;4.10;99.90
9157;DHT22;4613;48.392;9.998;2022-11-20T01:46:18;4.30;99.90
9157;DHT22;4613;48.392;9.998;2022-11-20T01:49:19;4.00;99.90
9157;DHT22;4613;48.392;9.998;2022-11-20T01:52:27;4.30;99.90
9157;DHT22;4613;48.392;9.998;2022-11-20T01:55:23;4.20;99.90
9157;DHT22;4613;48.392;9.998;2022-11-20T01:58:16;4.00;99.90
9157;DHT22;4613;48.392;9.998;2022-11-20T02:01:07;4.40;99.90
9157;DHT22;4613;48.392;9.998;2022-11-20T02:03:58;4.20;99.90
9157;DHT22;4613;48.392;9.998;2022-11-20T02:06:51;4.10;99.90
9157;DHT22;4613;48.392;9.998;2022-11-20T02:09:42;4.00;99.90
9157;DHT22;4613;48.392;9.998;2022-11-20T02:12:32;4.30;99.90
9157;DHT22;4613;48.392;9.998;2022-11-20T02:15:41;3.80;99.90
9157;DHT22;4613;48.392;9.998;2022-11-20T02:18:30;4.00;99.90
9157;DHT22;4613;48.392;9.998;2022-11-20T02:21:43;4.20;99.90
9157;DHT22;4613;48.392;9.998;2022-11-20T02:24:34;3.80;99.90
9157;DHT22;4613;48.392;9.998;2022-11-20T02:27:23;3.90;99.90
9157;DHT22;4613;48.392;9.998;2022-11-20T02:30:13;3.90;99.90
9157;DHT22;4613;48.392;9.998;2022-11-20T02:33:02;3.70;99.90
9157;DHT22;4613;48.392;9.998;2022-11-20T02:35:51;4.10;99.90
9157;DHT22;4613;48.392;9.998;2022-11-20T02:38:42;3.80;99.90
9157;DHT22;4613;48.392;9.998;2022-11-20T02:41:35;3.90;99.90
9157;DHT22;4613;48.392;9.998;2022-11-20T02:44:24;3.70;99.90
9157;DHT22;4613;48.392;9.998;2022-11-20T02:47:14;3.80;99.90
9157;DHT22;4613;48.392;9.998;2022-11-20T02:50:04;3.70;99.90
9157;DHT22;4613;48.392;9.998;2022-11-20T02:52:54;3.70;99.90
9157;DHT22;4613;48.392;9.998;2022-11-20T02:55:43;3.90;99.90
9157;DHT22;4613;48.392;9.998;2022-11-20T02:58:33;3.70;99.90
9157;DHT22;4613;48.392;9.998;2022-11-20T03:01:22;3.90;99.90
9157;DHT22;4613;48.392;9.998;2022-11-20T03:04:11;3.60;99.90
9157;DHT22;4613;48.392;9.998;2022-11-20T03:07:01;3.70;99.90
9157;DHT22;4613;48.392;9.998;2022-11-20T03:09:51;3.60;99.90
9157;DHT22;4613;48.392;9.998;2022-11-20T03:12:41;3.50;99.90
9157;DHT22;4613;48.392;9.998;2022-11-20T03:15:31;3.50;99.90
9157;DHT22;4613;48.392;9.998;2022-11-20T03:18:21;3.60;99.90
9157;DHT22;4613;48.392;9.998;2022-11-20T03:21:11;3.50;99.90
9157;DHT22;4613;48.392;9.998;2022-11-20T03:24:01;3.60;99.90
9157;DHT22;4613;48.392;9.998;2022-11-20T03:26:51;3.70;99.90
9157;DHT22;4613;48.392;9.998;2022-11-20T03:29:40;3.60;99.90
9157;DHT22;4613;48.392;9.998;2022-11-20T03:32:30;3.50;99.90
9157;DHT22;4613;48.392;9.998;2022-11-20T03:35:20;3.50;99.90
9157;DHT22;4613;48.392;9.998;2022-11-20T03:38:09;3.70;99.90
9157;DHT22;4613;48.392;9.998;2022-11-20T03:41:00;3.60;99.90
9157;DHT22;4613;48.392;9.998;2022-11-20T03:43:51;3.70;99.90
9157;DHT22;4613;48.392;9.998;2022-11-20T03:46:43;3.80;99.90
9157;DHT22;4613;48.392;9.998;2022-11-20T03:49:32;3.60;99.90
9157;DHT22;4613;48.392;9.998;2022-11-20T03:52:21;3.40;99.90
9157;DHT22;4613;48.392;9.998;2022-11-20T03:55:10;3.30;99.90
9157;DHT22;4613;48.392;9.998;2022-11-20T03:58:00;3.20;99.90
9157;DHT22;4613;48.392;9.998;2022-11-20T04:00:49;3.30;99.90
9157;DHT22;4613;48.392;9.998;2022-11-20T04:03:39;3.30;99.90
9157;DHT22;4613;48.392;9.998;2022-11-20T04:06:33;3.10;99.90
9157;DHT22;4613;48.392;9.998;2022-11-20T04:09:23;3.30;99.90
9157;DHT22;4613;48.392;9.998;2022-11-20T04:12:12;3.40;99.90
9157;DHT22;4613;48.392;9.998;2022-11-20T04:15:02;3.50;99.90
9157;DHT22;4613;48.392;9.998;2022-11-20T04:17:51;3.50;99.90
9157;DHT22;4613;48.392;9.998;2022-11-20T04:20:42;3.60;99.90
9157;DHT22;4613;48.392;9.998;2022-11-20T04:23:32;3.60;99.90
9157;DHT22;4613;48.392;9.998;2022-11-20T04:26:23;3.40;99.90
9157;DHT22;4613;48.392;9.998;2022-11-20T04:29:13;3.70;99.90
9157;DHT22;4613;48.392;9.998;2022-11-20T04:32:04;3.80;99.90
9157;DHT22;4613;48.392;9.998;2022-11-20T04:34:54;3.90;99.90
9157;DHT22;4613;48.392;9.998;2022-11-20T04:37:43;4.10;99.90
9157;DHT22;4613;48.392;9.998;2022-11-20T04:40:32;4.20;99.90
9157;DHT22;4613;48.392;9.998;2022-11-20T04:43:22;4.30;99.90
9157;DHT22;4613;48.392;9.998;2022-11-20T04:46:11;4.30;99.90
9157;DHT22;4613;48.392;9.998;2022-11-20T04:49:00;3.90;99.90
9157;DHT22;4613;48.392;9.998;2022-11-20T04:51:53;3.90;99.90
9157;DHT22;4613;48.392;9.998;2022-11-20T04:54:42;3.80;99.90
9157;DHT22;4613;48.392;9.998;2022-11-20T04:57:31;4.00;99.90
9157;DHT22;4613;48.392;9.998;2022-11-20T05:00:20;4.20;99.90
9157;DHT22;4613;48.392;9.998;2022-11-20T05:03:09;3.90;99.90
9157;DHT22;4613;48.392;9.998;2022-11-20T05:06:04;3.90;99.90
9157;DHT22;4613;48.392;9.998;2022-11-20T05:08:53;4.10;99.90
9157;DHT22;4613;48.392;9.998;2022-11-20T05:11:43;4.00;99.90
9157;DHT22;4613;48.392;9.998;2022-11-20T05:14:32;4.10;99.90
9157;DHT22;4613;48.392;9.998;2022-11-20T05:17:22;3.70;99.90
9157;DHT22;4613;48.392;9.998;2022-11-20T05:20:11;3.80;99.90
9157;DHT22;4613;48.392;9.998;2022-11-20T05:23:00;4.00;99.90
9157;DHT22;4613;48.392;9.998;2022-11-20T05:25:52;3.60;99.90
9157;DHT22;4613;48.392;9.998;2022-11-20T05:28:45;3.80;99.90
9157;DHT22;4613;48.392;9.998;2022-11-20T05:31:35;3.50;99.90
9157;DHT22;4613;48.392;9.998;2022-11-20T05:34:26;3.40;99.90
9157;DHT22;4613;48.392;9.998;2022-11-20T05:37:15;3.40;99.90
9157;DHT22;4613;48.392;9.998;2022-11-20T05:40:04;3.50;99.90
9157;DHT22;4613;48.392;9.998;2022-11-20T05:42:54;3.40;99.90
9157;DHT22;4613;48.392;9.998;2022-11-20T05:45:52;3.40;99.90
9157;DHT22;4613;48.392;9.998;2022-11-20T05:48:43;3.50;99.90
9157;DHT22;4613;48.392;9.998;2022-11-20T05:51:32;3.30;99.90
9157;DHT22;4613;48.392;9.998;2022-11-20T05:54:21;3.50;99.90
9157;DHT22;4613;48.392;9.998;2022-11-20T05:57:11;3.70;99.90
9157;DHT22;4613;48.392;9.998;2022-11-20T06:00:01;3.50;99.90
9157;DHT22;4613;48.392;9.998;2022-11-20T06:02:53;3.40;99.90
9157;DHT22;4613;48.392;9.998;2022-11-20T06:05:42;3.60;99.90
9157;DHT22;4613;48.392;9.998;2022-11-20T06:08:33;3.70;99.90
9157;DHT22;4613;48.392;9.998;2022-11-20T06:11:22;3.60;99.90
9157;DHT22;4613;48.392;9.998;2022-11-20T06:14:12;3.50;99.90
9157;DHT22;4613;48.392;9.998;2022-11-20T06:17:02;3.50;99.90
9157;DHT22;4613;48.392;9.998;2022-11-20T06:19:54;3.60;99.90
9157;DHT22;4613;48.392;9.998;2022-11-20T06:22:46;3.60;99.90
9157;DHT22;4613;48.392;9.998;2022-11-20T06:25:40;3.70;99.90
9157;DHT22;4613;48.392;9.998;2022-11-20T06:28:30;3.60;99.90
9157;DHT22;4613;48.392;9.998;2022-11-20T06:31:24;3.50;99.90
9157;DHT22;4613;48.392;9.998;2022-11-20T06:34:14;3.70;99.90
9157;DHT22;4613;48.392;9.998;2022-11-20T06:37:03;3.70;99.90
9157;DHT22;4613;48.392;9.998;2022-11-20T06:39:53;3.70;99.90
9157;DHT22;4613;48.392;9.998;2022-11-20T06:42:42;3.70;99.90
9157;DHT22;4613;48.392;9.998;2022-11-20T06:45:30;3.80;99.90
9157;DHT22;4613;48.392;9.998;2022-11-20T06:48:20;4.00;99.90
9157;DHT22;4613;48.392;9.998;2022-11-20T06:51:09;4.00;99.90
9157;DHT22;4613;48.392;9.998;2022-11-20T06:53:58;3.90;99.90
9157;DHT22;4613;48.392;9.998;2022-11-20T06:56:50;3.90;99.90
9157;DHT22;4613;48.392;9.998;2022-11-20T06:59:39;3.90;99.90
9157;DHT22;4613;48.392;9.998;2022-11-20T07:02:28;4.00;99.90
9157;DHT22;4613;48.392;9.998;2022-11-20T07:05:17;4.00;99.90
9157;DHT22;4613;48.392;9.998;2022-11-20T07:08:06;5.10;99.90
9157;DHT22;4613;48.392;9.998;2022-11-20T07:11:02;5.00;99.90
9157;DHT22;4613;48.392;9.998;2022-11-20T07:13:52;4.70;99.90
9157;DHT22;4613;48.392;9.998;2022-11-20T07:16:42;4.70;99.90
9157;DHT22;4613;48.392;9.998;2022-11-20T07:19:31;4.70;99.90
9157;DHT22;4613;48.392;9.998;2022-11-20T07:22:21;4.30;99.90
9157;DHT22;4613;48.392;9.998;2022-11-20T07:25:10;4.20;99.90
9157;DHT22;4613;48.392;9.998;2022-11-20T07:28:01;4.10;99.90
9157;DHT22;4613;48.392;9.998;2022-11-20T07:30:53;4.20;99.90
9157;DHT22;4613;48.392;9.998;2022-11-20T07:33:43;4.20;99.90
9157;DHT22;4613;48.392;9.998;2022-11-20T07:36:33;4.10;99.90
9157;DHT22;4613;48.392;9.998;2022-11-20T07:39:22;4.10;99.90
9157;DHT22;4613;48.392;9.998;2022-11-20T07:42:12;4.20;99.90
9157;DHT22;4613;48.392;9.998;2022-11-20T07:45:02;4.20;99.90
9157;DHT22;4613;48.392;9.998;2022-11-20T07:47:51;4.40;99.90
9157;DHT22;4613;48.392;9.998;2022-11-20T07:50:42;4.10;99.90
9157;DHT22;4613;48.392;9.998;2022-11-20T07:53:32;4.20;99.90
9157;DHT22;4613;48.392;9.998;2022-11-20T07:56:21;4.80;99.90
9157;DHT22;4613;48.392;9.998;2022-11-20T07:59:10;4.90;99.90
9157;DHT22;4613;48.392;9.998;2022-11-20T08:02:00;4.60;99.90
9157;DHT22;4613;48.392;9.998;2022-11-20T08:04:52;4.50;99.90
9157;DHT22;4613;48.392;9.998;2022-11-20T08:07:43;4.40;99.90
9157;DHT22;4613;48.392;9.998;2022-11-20T08:10:33;4.50;99.90
9157;DHT22;4613;48.392;9.998;2022-11-20T08:13:23;4.60;99.90
9157;DHT22;4613;48.392;9.998;2022-11-20T08:16:31;4.60;99.90
9157;DHT22;4613;48.392;9.998;2022-11-20T08:19:21;4.70;99.90
9157;DHT22;4613;48.392;9.998;2022-11-20T08:22:11;4.50;99.90
9157;DHT22;4613;48.392;9.998;2022-11-20T08:25:01;4.70;99.90
9157;DHT22;4613;48.392;9.998;2022-11-20T08:27:50;4.30;99.90
9157;DHT22;4613;48.392;9.998;2022-11-20T08:30:40;4.40;99.90
9157;DHT22;4613;48.392;9.998;2022-11-20T08:33:29;4.50;99.90
9157;DHT22;4613;48.392;9.998;2022-11-20T08:36:20;4.70;99.90
9157;DHT22;4613;48.392;9.998;2022-11-20T08:39:14;4.60;99.90
9157;DHT22;4613;48.392;9.998;2022-11-20T08:42:07;4.70;99.90
9157;DHT22;4613;48.392;9.998;2022-11-20T08:44:56;4.40;99.90
9157;DHT22;4613;48.392;9.998;2022-11-20T08:47:46;4.50;99.90
9157;DHT22;4613;48.392;9.998;2022-11-20T08:50:35;4.60;99.90
9157;DHT22;4613;48.392;9.998;2022-11-20T08:53:24;4.50;99.90
9157;DHT22;4613;48.392;9.998;2022-11-20T08:56:13;4.50;99.90
9157;DHT22;4613;48.392;9.998;2022-11-20T08:59:03;4.70;99.90
9157;DHT22;4613;48.392;9.998;2022-11-20T09:01:55;4.80;99.90
9157;DHT22;4613;48.392;9.998;2022-11-20T09:04:45;4.70;99.90
9157;DHT22;4613;48.392;9.998;2022-11-20T09:07:35;4.80;99.90
9157;DHT22;4613;48.392;9.998;2022-11-20T09:10:25;4.80;99.90
9157;DHT22;4613;48.392;9.998;2022-11-20T09:13:15;4.80;99.90
9157;DHT22;4613;48.392;9.998;2022-11-20T09:16:07;5.00;99.90
9157;DHT22;4613;48.392;9.998;2022-11-20T09:18:57;5.00;99.90
9157;DHT22;4613;48.392;9.998;2022-11-20T09:21:46;5.10;99.90
9157;DHT22;4613;48.392;9.998;2022-11-20T09:24:35;5.20;99.90
9157;DHT22;4613;48.392;9.998;2022-11-20T09:27:25;5.10;99.90
9157;DHT22;4613;48.392;9.998;2022-11-20T09:30:15;5.10;99.90
9157;DHT22;4613;48.392;9.998;2022-11-20T09:33:05;5.20;99.90
9157;DHT22;4613;48.392;9.998;2022-11-20T09:35:55;5.10;99.90
9157;DHT22;4613;48.392;9.998;2022-11-20T09:38:45;5.20;99.90
9157;DHT22;4613;48.392;9.998;2022-11-20T09:41:47;5.00;99.90
9157;DHT22;4613;48.392;9.998;2022-11-20T09:45:35;5.10;99.90
9157;DHT22;4613;48.392;9.998;2022-11-20T09:48:42;5.10;99.90
9157;DHT22;4613;48.392;9.998;2022-11-20T09:55:02;5.20;99.90
9157;DHT22;4613;48.392;9.998;2022-11-20T09:57:52;5.20;99.90
9157;DHT22;4613;48.392;9.998;2022-11-20T10:00:41;5.30;99.90
9157;DHT22;4613;48.392;9.998;2022-11-20T10:06:37;5.40;99.90
9157;DHT22;4613;48.392;9.998;2022-11-20T10:09:36;5.60;99.90
9157;DHT22;4613;48.392;9.998;2022-11-20T10:12:57;5.50;99.90
9157;DHT22;4613;48.392;9.998;2022-11-20T10:16:12;5.60;99.90
9157;DHT22;4613;48.392;9.998;2022-11-20T10:22:26;5.70;99.90
9157;DHT22;4613;48.392;9.998;2022-11-20T10:25:23;5.80;99.90
9157;DHT22;4613;48.392;9.998;2022-11-20T10:31:32;5.80;99.90
9157;DHT22;4613;48.392;9.998;2022-11-20T10:34:28;5.90;99.90
9157;DHT22;4613;48.392;9.998;2022-11-20T10:37:23;5.80;99.90
9157;DHT22;4613;48.392;9.998;2022-11-20T10:40:48;5.90;99.90
9157;DHT22;4613;48.392;9.998;2022-11-20T10:43:39;6.00;99.90
9157;DHT22;4613;48.392;9.998;2022-11-20T10:46:37;6.00;99.90
9157;DHT22;4613;48.392;9.998;2022-11-20T10:49:32;6.00;99.90
9157;DHT22;4613;48.392;9.998;2022-11-20T10:52:52;6.00;99.90
9157;DHT22;4613;48.392;9.998;2022-11-20T10:55:48;6.10;99.90
9157;DHT22;4613;48.392;9.998;2022-11-20T11:01:50;5.90;99.90
9157;DHT22;4613;48.392;9.998;2022-11-20T11:04:44;5.90;99.90
9157;DHT22;4613;48.392;9.998;2022-11-20T11:07:39;5.90;99.90
9157;DHT22;4613;48.392;9.998;2022-11-20T11:10:59;5.90;99.90
9157;DHT22;4613;48.392;9.998;2022-11-20T11:13:47;5.90;99.90
9157;DHT22;4613;48.392;9.998;2022-11-20T11:16:53;5.90;99.90
9157;DHT22;4613;48.392;9.998;2022-11-20T11:19:42;5.90;99.90
9157;DHT22;4613;48.392;9.998;2022-11-20T11:22:34;5.90;99.90
9157;DHT22;4613;48.392;9.998;2022-11-20T11:25:37;5.90;99.90
9157;DHT22;4613;48.392;9.998;2022-11-20T11:28:30;5.80;99.90
9157;DHT22;4613;48.392;9.998;2022-11-20T11:31:31;5.90;99.90
9157;DHT22;4613;48.392;9.998;2022-11-20T11:34:31;5.90;99.90
9157;DHT22;4613;48.392;9.998;2022-11-20T11:37:24;6.00;99.90
9157;DHT22;4613;48.392;9.998;2022-11-20T11:40:21;5.90;99.90
9157;DHT22;4613;48.392;9.998;2022-11-20T11:43:32;6.00;99.90
9157;DHT22;4613;48.392;9.998;2022-11-20T11:46:50;5.90;99.90
9157;DHT22;4613;48.392;9.998;2022-11-20T11:49:45;6.00;99.90
9157;DHT22;4613;48.392;9.998;2022-11-20T11:52:56;6.10;99.90
9157;DHT22;4613;48.392;9.998;2022-11-20T11:58:54;6.10;99.90
9157;DHT22;4613;48.392;9.998;2022-11-20T12:02:01;6.10;99.90
9157;DHT22;4613;48.392;9.998;2022-11-20T12:11:53;6.30;99.90
9157;DHT22;4613;48.392;9.998;2022-11-20T12:14:47;6.20;99.90
9157;DHT22;4613;48.392;9.998;2022-11-20T12:17:39;6.30;99.90
9157;DHT22;4613;48.392;9.998;2022-11-20T12:20:38;6.30;99.90
9157;DHT22;4613;48.392;9.998;2022-11-20T12:30:06;6.30;99.90
9157;DHT22;4613;48.392;9.998;2022-11-20T12:33:38;6.30;99.90
9157;DHT22;4613;48.392;9.998;2022-11-20T12:36:56;6.30;99.90
9157;DHT22;4613;48.392;9.998;2022-11-20T12:39:55;6.50;99.90
9157;DHT22;4613;48.392;9.998;2022-11-20T12:43:06;6.40;99.90
9157;DHT22;4613;48.392;9.998;2022-11-20T12:46:25;6.50;99.90
9157;DHT22;4613;48.392;9.998;2022-11-20T12:52:37;6.60;99.90
9157;DHT22;4613;48.392;9.998;2022-11-20T12:55:37;6.70;99.90
9157;DHT22;4613;48.392;9.998;2022-11-20T13:01:48;6.70;99.90
9157;DHT22;4613;48.392;9.998;2022-11-20T13:05:19;7.10;99.90
9157;DHT22;4613;48.392;9.998;2022-11-20T13:08:33;8.40;99.90
9157;DHT22;4613;48.392;9.998;2022-11-20T13:20:56;8.20;99.90
9157;DHT22;4613;48.392;9.998;2022-11-20T13:23:50;8.90;99.90
9157;DHT22;4613;48.392;9.998;2022-11-20T13:26:44;8.30;99.90
9157;DHT22;4613;48.392;9.998;2022-11-20T13:29:35;8.10;99.90
9157;DHT22;4613;48.392;9.998;2022-11-20T13:32:31;7.70;99.90
9157;DHT22;4613;48.392;9.998;2022-11-20T13:35:36;7.50;99.90
9157;DHT22;4613;48.392;9.998;2022-11-20T13:38:50;7.50;99.90
9157;DHT22;4613;48.392;9.998;2022-11-20T13:41:53;7.30;99.90
9157;DHT22;4613;48.392;9.998;2022-11-20T13:44:48;7.30;99.90
9157;DHT22;4613;48.392;9.998;2022-11-20T13:47:47;7.20;99.90
9157;DHT22;4613;48.392;9.998;2022-11-20T14:01:15;7.20;99.90
9157;DHT22;4613;48.392;9.998;2022-11-20T14:04:08;7.20;99.90
9157;DHT22;4613;48.392;9.998;2022-11-20T14:06:58;7.20;99.90
9157;DHT22;4613;48.392;9.998;2022-11-20T14:09:52;7.20;99.90
9157;DHT22;4613;48.392;9.998;2022-11-20T14:12:42;7.20;99.90
9157;DHT22;4613;48.392;9.998;2022-11-20T14:15:33;7.20;99.90
9157;DHT22;4613;48.392;9.998;2022-11-20T14:18:25;7.40;99.90
9157;DHT22;4613;48.392;9.998;2022-11-20T14:21:26;7.40;99.90
9157;DHT22;4613;48.392;9.998;2022-11-20T14:24:21;7.40;99.90
9157;DHT22;4613;48.392;9.998;2022-11-20T14:27:13;7.30;99.90
9157;DHT22;4613;48.392;9.998;2022-11-20T14:30:04;7.30;99.90
9157;DHT22;4613;48.392;9.998;2022-11-20T14:32:57;7.20;99.90
9157;DHT22;4613;48.392;9.998;2022-11-20T14:35:54;7.20;99.90
9157;DHT22;4613;48.392;9.998;2022-11-20T14:38:44;7.20;99.90
9157;DHT22;4613;48.392;9.998;2022-11-20T14:41:38;7.10;99.90
9157;DHT22;4613;48.392;9.998;2022-11-20T14:44:32;7.10;99.90
9157;DHT22;4613;48.392;9.998;2022-11-20T14:47:25;7.10;99.90
9157;DHT22;4613;48.392;9.998;2022-11-20T14:50:33;7.10;99.90
9157;DHT22;4613;48.392;9.998;2022-11-20T14:53:24;7.10;99.90
9157;DHT22;4613;48.392;9.998;2022-11-20T14:56:22;7.20;99.90
9157;DHT22;4613;48.392;9.998;2022-11-20T14:59:23;7.10;99.90
9157;DHT22;4613;48.392;9.998;2022-11-20T15:02:18;7.10;99.90
9157;DHT22;4613;48.392;9.998;2022-11-20T15:05:08;7.10;99.90
9157;DHT22;4613;48.392;9.998;2022-11-20T15:08:08;7.00;99.90
9157;DHT22;4613;48.392;9.998;2022-11-20T15:10:58;6.90;99.90
9157;DHT22;4613;48.392;9.998;2022-11-20T15:13:48;6.80;99.90
9157;DHT22;4613;48.392;9.998;2022-11-20T15:16:39;6.80;99.90
9157;DHT22;4613;48.392;9.998;2022-11-20T15:19:29;6.80;99.90
9157;DHT22;4613;48.392;9.998;2022-11-20T15:22:18;6.80;99.90
9157;DHT22;4613;48.392;9.998;2022-11-20T15:25:15;6.70;99.90
9157;DHT22;4613;48.392;9.998;2022-11-20T15:28:16;6.80;99.90
9157;DHT22;4613;48.392;9.998;2022-11-20T15:31:13;6.60;99.90
9157;DHT22;4613;48.392;9.998;2022-11-20T15:34:05;6.50;99.90
9157;DHT22;4613;48.392;9.998;2022-11-20T15:36:56;6.30;99.90
9157;DHT22;4613;48.392;9.998;2022-11-20T15:39:46;6.20;99.90
9157;DHT22;4613;48.392;9.998;2022-11-20T15:42:36;6.10;99.90
9157;DHT22;4613;48.392;9.998;2022-11-20T15:45:27;6.00;99.90
9157;DHT22;4613;48.392;9.998;2022-11-20T15:48:29;6.00;99.90
9157;DHT22;4613;48.392;9.998;2022-11-20T15:51:25;6.00;99.90
9157;DHT22;4613;48.392;9.998;2022-11-20T15:54:20;5.90;99.90
9157;DHT22;4613;48.392;9.998;2022-11-20T15:57:11;5.80;99.90
9157;DHT22;4613;48.392;9.998;2022-11-20T16:00:03;5.80;99.90
9157;DHT22;4613;48.392;9.998;2022-11-20T16:03:00;5.80;99.90
9157;DHT22;4613;48.392;9.998;2022-11-20T16:05:49;5.70;99.90
9157;DHT22;4613;48.392;9.998;2022-11-20T16:08:38;5.80;99.90
9157;DHT22;4613;48.392;9.998;2022-11-20T16:11:28;5.60;99.90
9157;DHT22;4613;48.392;9.998;2022-11-20T16:14:18;5.60;99.90
9157;DHT22;4613;48.392;9.998;2022-11-20T16:17:26;5.60;99.90
9157;DHT22;4613;48.392;9.998;2022-11-20T16:20:31;5.70;99.90
9157;DHT22;4613;48.392;9.998;2022-11-20T16:23:21;5.70;99.90
9157;DHT22;4613;48.392;9.998;2022-11-20T16:26:16;5.60;99.90
9157;DHT22;4613;48.392;9.998;2022-11-20T16:29:09;5.60;99.90
9157;DHT22;4613;48.392;9.998;2022-11-20T16:32:02;5.70;99.90
9157;DHT22;4613;48.392;9.998;2022-11-20T16:34:51;5.70;99.90
9157;DHT22;4613;48.392;9.998;2022-11-20T16:37:41;5.60;99.90
9157;DHT22;4613;48.392;9.998;2022-11-20T16:40:33;5.60;99.90
9157;DHT22;4613;48.392;9.998;2022-11-20T16:43:26;5.60;99.90
9157;DHT22;4613;48.392;9.998;2022-11-20T16:46:17;5.70;99.90
9157;DHT22;4613;48.392;9.998;2022-11-20T16:49:11;5.60;99.90
9157;DHT22;4613;48.392;9.998;2022-11-20T16:52:00;5.50;99.90
9157;DHT22;4613;48.392;9.998;2022-11-20T16:54:49;5.50;99.90
9157;DHT22;4613;48.392;9.998;2022-11-20T16:57:40;5.50;99.90
9157;DHT22;4613;48.392;9.998;2022-11-20T17:00:40;5.60;99.90
9157;DHT22;4613;48.392;9.998;2022-11-20T17:03:29;5.60;99.90
9157;DHT22;4613;48.392;9.998;2022-11-20T17:06:21;5.60;99.90
9157;DHT22;4613;48.392;9.998;2022-11-20T17:09:16;5.30;99.90
9157;DHT22;4613;48.392;9.998;2022-11-20T17:12:06;5.50;99.90
9157;DHT22;4613;48.392;9.998;2022-11-20T17:15:18;5.50;99.90
9157;DHT22;4613;48.392;9.998;2022-11-20T17:18:16;5.30;99.90
9157;DHT22;4613;48.392;9.998;2022-11-20T17:28:13;5.20;99.90
9157;DHT22;4613;48.392;9.998;2022-11-20T17:31:07;5.40;99.90
9157;DHT22;4613;48.392;9.998;2022-11-20T17:37:26;5.50;99.90
9157;DHT22;4613;48.392;9.998;2022-11-20T17:40:25;6.70;99.90
9157;DHT22;4613;48.392;9.998;2022-11-20T17:43:15;7.30;99.90
9157;DHT22;4613;48.392;9.998;2022-11-20T17:46:09;6.10;99.90
9157;DHT22;4613;48.392;9.998;2022-11-20T17:49:00;5.60;99.90
9157;DHT22;4613;48.392;9.998;2022-11-20T17:51:57;5.60;99.90
9157;DHT22;4613;48.392;9.998;2022-11-20T17:54:47;5.60;99.90
9157;DHT22;4613;48.392;9.998;2022-11-20T17:57:44;5.60;99.90
9157;DHT22;4613;48.392;9.998;2022-11-20T18:00:48;5.50;99.90
9157;DHT22;4613;48.392;9.998;2022-11-20T18:03:38;5.30;99.90
9157;DHT22;4613;48.392;9.998;2022-11-20T18:06:29;5.40;99.90
9157;DHT22;4613;48.392;9.998;2022-11-20T18:09:20;5.50;99.90
9157;DHT22;4613;48.392;9.998;2022-11-20T18:12:13;5.20;99.90
9157;DHT22;4613;48.392;9.998;2022-11-20T18:15:06;5.10;99.90
9157;DHT22;4613;48.392;9.998;2022-11-20T18:17:57;5.20;99.90
9157;DHT22;4613;48.392;9.998;2022-11-20T18:20:52;5.10;99.90
9157;DHT22;4613;48.392;9.998;2022-11-20T18:23:42;5.10;99.90
9157;DHT22;4613;48.392;9.998;2022-11-20T18:26:32;5.00;99.90
9157;DHT22;4613;48.392;9.998;2022-11-20T18:29:23;5.00;99.90
9157;DHT22;4613;48.392;9.998;2022-11-20T18:32:13;4.90;99.90
9157;DHT22;4613;48.392;9.998;2022-11-20T18:35:03;4.90;99.90
9157;DHT22;4613;48.392;9.998;2022-11-20T18:37:53;4.80;99.90
9157;DHT22;4613;48.392;9.998;2022-11-20T18:40:47;4.90;99.90
9157;DHT22;4613;48.392;9.998;2022-11-20T18:43:37;4.90;99.90
9157;DHT22;4613;48.392;9.998;2022-11-20T18:46:47;5.00;99.90
9157;DHT22;4613;48.392;9.998;2022-11-20T18:49:40;5.10;99.90
9157;DHT22;4613;48.392;9.998;2022-11-20T18:52:40;5.00;99.90
9157;DHT22;4613;48.392;9.998;2022-11-20T18:55:35;5.10;99.90
9157;DHT22;4613;48.392;9.998;2022-11-20T18:58:27;5.10;99.90
9157;DHT22;4613;48.392;9.998;2022-11-20T19:01:20;5.00;99.90
9157;DHT22;4613;48.392;9.998;2022-11-20T19:04:17;5.00;99.90
9157;DHT22;4613;48.392;9.998;2022-11-20T19:07:07;5.00;99.90
9157;DHT22;4613;48.392;9.998;2022-11-20T19:10:03;5.20;99.90
9157;DHT22;4613;48.392;9.998;2022-11-20T19:12:55;5.00;99.90
9157;DHT22;4613;48.392;9.998;2022-11-20T19:15:46;5.00;99.90
9157;DHT22;4613;48.392;9.998;2022-11-20T19:18:36;5.00;99.90
9157;DHT22;4613;48.392;9.998;2022-11-20T19:21:25;5.00;99.90
9157;DHT22;4613;48.392;9.998;2022-11-20T19:24:15;5.10;99.90
9157;DHT22;4613;48.392;9.998;2022-11-20T19:27:05;5.10;99.90
9157;DHT22;4613;48.392;9.998;2022-11-20T19:29:58;5.10;99.90
9157;DHT22;4613;48.392;9.998;2022-11-20T19:32:54;5.10;99.90
9157;DHT22;4613;48.392;9.998;2022-11-20T19:35:46;5.10;99.90
9157;DHT22;4613;48.392;9.998;2022-11-20T19:38:45;5.10;99.90
9157;DHT22;4613;48.392;9.998;2022-11-20T19:41:38;5.10;99.90
9157;DHT22;4613;48.392;9.998;2022-11-20T19:44:28;5.10;99.90
9157;DHT22;4613;48.392;9.998;2022-11-20T19:47:18;5.20;99.90
9157;DHT22;4613;48.392;9.998;2022-11-20T19:50:07;5.20;99.90
9157;DHT22;4613;48.392;9.998;2022-11-20T19:52:57;5.10;99.90
9157;DHT22;4613;48.392;9.998;2022-11-20T19:55:59;5.20;99.90
9157;DHT22;4613;48.392;9.998;2022-11-20T19:58:54;5.20;99.90
9157;DHT22;4613;48.392;9.998;2022-11-20T20:01:45;5.10;99.90
9157;DHT22;4613;48.392;9.998;2022-11-20T20:04:34;4.90;99.90
9157;DHT22;4613;48.392;9.998;2022-11-20T20:07:24;5.00;99.90
9157;DHT22;4613;48.392;9.998;2022-11-20T20:10:14;5.00;99.90
9157;DHT22;4613;48.392;9.998;2022-11-20T20:13:03;5.00;99.90
9157;DHT22;4613;48.392;9.998;2022-11-20T20:15:53;5.00;99.90
9157;DHT22;4613;48.392;9.998;2022-11-20T20:18:43;5.00;99.90